Terminal Aerodrome Forecast
Issued by NWS

Home | Current Version | Previous Version | Text Only | Print | Product List | Glossary On
Versions: 1 2 3 4 5 6 7 8 9 10 11 12 13 14 15 16 17 18 19
834
FTUS43 KIND 281720
TAFBMG
TAF
KBMG 281720Z 2818/2918 VRB03KT P6SM VCTS BKN035CB
     FM290000 VRB03KT P6SM SCT250
     FM290800 VRB03KT 4SM BR SCT250
      TEMPO 2908/2911 2SM BR
     FM291200 VRB03KT P6SM SCT250
     FM291600 07005KT P6SM SCT030=

USA.gov is the U.S. government's official web portal to all federal, state and local government web resources and services.